createdAt,value
2022-08-14T00:01:23.798Z,8.55
2022-08-14T00:05:27.026Z,7.95
2022-08-14T00:09:33.064Z,8.93
2022-08-14T00:13:37.408Z,8.20
2022-08-14T00:17:47.564Z,8.10
2022-08-14T00:21:52.530Z,8.23
2022-08-14T00:26:05.793Z,8.25
2022-08-14T00:30:14.263Z,9.23
2022-08-14T00:34:35.375Z,7.78
2022-08-14T00:38:40.997Z,8.32
2022-08-14T00:42:55.530Z,7.95
2022-08-14T00:47:10.655Z,9.43
2022-08-14T00:51:13.954Z,8.25
2022-08-14T00:55:16.969Z,8.38
2022-08-14T00:59:21.166Z,8.77
2022-08-14T01:03:24.125Z,8.40
2022-08-14T01:07:38.599Z,8.40
2022-08-14T01:11:57.310Z,8.55
2022-08-14T01:16:09.827Z,8.95
2022-08-14T01:20:40.047Z,8.75
2022-08-14T01:24:45.509Z,8.50
2022-08-14T01:28:57.780Z,8.80
2022-08-14T01:33:00.786Z,8.60
2022-08-14T01:37:04.676Z,8.98
2022-08-14T01:41:14.884Z,8.40
2022-08-14T01:45:25.465Z,8.57
2022-08-14T01:49:35.317Z,8.18
2022-08-14T01:53:40.624Z,7.32
2022-08-14T01:57:49.420Z,8.25
2022-08-14T02:02:14.746Z,8.80
2022-08-14T02:06:32.493Z,8.18
2022-08-14T02:10:36.528Z,8.65
2022-08-14T02:15:00.341Z,8.45
2022-08-14T02:19:07.373Z,9.32
2022-08-14T02:23:11.482Z,9.27
2022-08-14T02:28:26.100Z,8.98
2022-08-14T02:31:44.042Z,8.35
2022-08-14T02:35:53.340Z,7.88
2022-08-14T02:40:06.548Z,8.80
2022-08-14T02:44:12.760Z,9.13
2022-08-14T02:49:03.169Z,8.98
2022-08-14T02:52:56.715Z,9.38
2022-08-14T02:57:16.202Z,8.88
2022-08-14T03:01:31.275Z,8.43
2022-08-14T03:05:49.918Z,9.25
2022-08-14T03:10:26.560Z,8.57
2022-08-14T03:14:18.038Z,8.35
2022-08-14T03:18:23.113Z,8.73
2022-08-14T03:22:36.833Z,7.85
2022-08-14T03:26:43.610Z,8.95
2022-08-14T03:30:47.514Z,8.98
2022-08-14T03:34:55.454Z,9.00
2022-08-14T03:39:16.050Z,8.48
2022-08-14T03:43:22.961Z,9.10
2022-08-14T03:47:46.039Z,8.95
2022-08-14T03:51:48.906Z,8.88
2022-08-14T03:55:58.541Z,10.23
2022-08-14T04:00:03.658Z,9.20
2022-08-14T04:04:14.718Z,9.02
2022-08-14T04:08:29.883Z,8.52
2022-08-14T04:12:35.939Z,8.90
2022-08-14T04:16:41.842Z,9.25
2022-08-14T04:20:54.209Z,9.27
2022-08-14T04:25:02.191Z,9.07
2022-08-14T04:29:15.786Z,8.68
2022-08-14T04:33:20.970Z,8.70
2022-08-14T04:37:43.232Z,9.52
2022-08-14T04:42:08.144Z,9.98
2022-08-14T04:46:55.368Z,9.07
2022-08-14T04:50:49.149Z,9.32
2022-08-14T04:54:57.669Z,9.15
2022-08-14T04:59:10.488Z,9.30
2022-08-14T05:03:15.196Z,11.27
2022-08-14T05:07:17.981Z,10.55
2022-08-14T05:11:40.736Z,9.55
2022-08-14T05:15:44.783Z,9.13
2022-08-14T05:21:54.897Z,8.95
2022-08-14T05:24:17.446Z,8.40
2022-08-14T05:28:22.766Z,8.88
2022-08-14T05:32:28.157Z,8.23
2022-08-14T05:36:33.354Z,7.70
2022-08-14T05:40:40.171Z,7.70
2022-08-14T05:44:43.449Z,8.25
2022-08-14T05:48:49.739Z,7.85
2022-08-14T05:52:55.059Z,8.65
2022-08-14T05:56:58.550Z,8.13
2022-08-14T06:01:02.018Z,8.45
2022-08-14T06:05:05.656Z,7.95
2022-08-14T06:09:12.929Z,8.68
2022-08-14T06:13:16.876Z,9.55
2022-08-14T06:17:25.661Z,7.70
2022-08-14T06:21:28.850Z,8.35
2022-08-14T06:25:34.257Z,8.60
2022-08-14T06:29:39.218Z,7.90
2022-08-14T06:35:04.755Z,8.20
2022-08-14T06:38:05.141Z,8.20
2022-08-14T06:42:09.307Z,8.02
2022-08-14T06:46:34.019Z,8.43
2022-08-14T06:50:37.286Z,8.98
2022-08-14T06:54:40.525Z,7.95
2022-08-14T06:58:44.780Z,10.20
2022-08-14T07:03:07.009Z,9.98
2022-08-14T07:07:15.257Z,7.95
2022-08-14T07:11:18.029Z,8.68
2022-08-14T07:15:23.724Z,8.43
2022-08-14T07:19:31.375Z,9.10
2022-08-14T07:23:34.554Z,8.50
2022-08-14T07:27:43.688Z,8.75
2022-08-14T07:31:47.773Z,8.27
2022-08-14T07:35:57.739Z,8.77
2022-08-14T07:40:02.954Z,8.80
2022-08-14T07:44:29.758Z,8.55
2022-08-14T07:48:30.880Z,8.07
2022-08-14T07:52:33.702Z,7.78
2022-08-14T07:56:43.997Z,7.80
2022-08-14T08:00:56.381Z,8.18
2022-08-14T08:05:01.704Z,7.45
2022-08-14T08:09:06.452Z,8.32
2022-08-14T08:13:12.291Z,8.70
2022-08-14T08:17:15.195Z,8.75
2022-08-14T08:21:19.359Z,8.38
2022-08-14T08:25:22.345Z,7.88
2022-08-14T08:29:29.169Z,8.07
2022-08-14T08:33:37.205Z,7.85
2022-08-14T08:37:43.759Z,7.97
2022-08-14T08:41:49.393Z,7.50
2022-08-14T08:45:58.117Z,7.85
2022-08-14T08:50:01.441Z,7.60
2022-08-14T08:54:09.815Z,7.90
2022-08-14T08:58:20.074Z,7.40
2022-08-14T09:02:27.947Z,7.82
2022-08-14T09:07:09.257Z,7.50
2022-08-14T09:10:56.855Z,7.45
2022-08-14T09:15:00.925Z,7.70
2022-08-14T09:19:04.522Z,7.75
2022-08-14T09:23:09.087Z,7.50
2022-08-14T09:27:22.586Z,8.00
2022-08-14T09:31:28.114Z,7.88
2022-08-14T09:35:58.115Z,7.28
2022-08-14T09:40:07.453Z,7.63
2022-08-14T09:44:29.739Z,7.43
2022-08-14T09:48:37.650Z,6.72
2022-08-14T09:52:54.731Z,7.20
2022-08-14T09:56:59.569Z,7.35
2022-08-14T10:01:10.649Z,7.10
2022-08-14T10:05:14.268Z,6.97
2022-08-14T10:09:18.006Z,6.85
2022-08-14T10:13:25.786Z,7.88
2022-08-14T10:17:38.455Z,8.55
2022-08-14T10:23:11.782Z,6.85
2022-08-14T10:26:23.029Z,6.38
2022-08-14T10:30:37.588Z,7.18
2022-08-14T10:34:42.798Z,6.28
2022-08-14T10:38:50.560Z,6.28
2022-08-14T10:42:55.565Z,6.55
2022-08-14T10:47:41.636Z,6.80
2022-08-14T10:51:35.451Z,6.20
2022-08-14T10:55:45.999Z,6.25
2022-08-14T10:59:52.365Z,6.30
2022-08-14T11:03:57.296Z,6.53
2022-08-14T11:08:01.875Z,6.30
2022-08-14T11:12:39.944Z,6.60
2022-08-14T11:16:35.948Z,6.72
2022-08-14T11:20:49.484Z,6.78
2022-08-14T11:25:03.856Z,8.07
2022-08-14T11:29:11.376Z,6.70
2022-08-14T11:33:16.276Z,6.82
2022-08-14T11:37:36.425Z,7.40
2022-08-14T11:41:55.579Z,6.32
2022-08-14T11:45:59.279Z,6.45
2022-08-14T11:50:14.024Z,6.20
2022-08-14T11:54:34.725Z,6.32
2022-08-14T11:58:40.396Z,6.50
2022-08-14T12:03:02.793Z,5.88
2022-08-14T12:07:08.853Z,6.50
2022-08-14T12:11:14.484Z,6.43
2022-08-14T12:15:30.302Z,6.22
2022-08-14T12:19:43.738Z,6.25
2022-08-14T12:23:51.032Z,5.95
2022-08-14T12:27:58.884Z,6.03
2022-08-14T12:32:08.853Z,6.32
2022-08-14T12:36:22.030Z,6.53
2022-08-14T12:40:28.481Z,6.05
2022-08-14T12:44:34.327Z,6.40
2022-08-14T12:48:50.400Z,5.90
2022-08-14T12:52:58.793Z,6.47
2022-08-14T12:57:19.885Z,5.82
2022-08-14T13:01:25.414Z,5.90
2022-08-14T13:05:32.649Z,5.38
2022-08-14T13:09:37.975Z,6.20
2022-08-14T13:13:46.015Z,6.00
2022-08-14T13:17:53.605Z,5.93
2022-08-14T13:22:09.907Z,6.53
2022-08-14T13:26:13.873Z,6.32
2022-08-14T13:30:24.347Z,5.85
2022-08-14T13:34:31.492Z,6.30
2022-08-14T13:38:36.555Z,6.07
2022-08-14T13:42:44.558Z,5.68
2022-08-14T13:46:51.261Z,6.18
2022-08-14T13:50:58.461Z,5.78
2022-08-14T13:55:06.972Z,6.90
2022-08-14T13:59:10.786Z,6.10
2022-08-14T14:03:15.648Z,5.32
2022-08-14T14:07:23.393Z,6.00
2022-08-14T14:11:29.830Z,5.50
2022-08-14T14:15:48.378Z,6.38
2022-08-14T14:19:56.190Z,5.90
2022-08-14T14:24:00.293Z,5.88
2022-08-14T14:28:06.597Z,6.07
2022-08-14T14:32:17.344Z,6.18
2022-08-14T14:36:27.996Z,6.63
2022-08-14T14:40:53.668Z,6.18
2022-08-14T14:45:14.432Z,5.90
2022-08-14T14:49:21.860Z,6.70
2022-08-14T14:53:26.010Z,6.53
2022-08-14T14:57:35.391Z,6.10
2022-08-14T15:01:40.483Z,5.90
2022-08-14T15:05:44.524Z,6.20
2022-08-14T15:09:53.453Z,6.03
2022-08-14T15:14:03.011Z,6.20
2022-08-14T15:18:36.642Z,6.10
2022-08-14T15:22:43.557Z,6.13
2022-08-14T15:27:02.927Z,5.97
2022-08-14T15:31:06.302Z,5.97
2022-08-14T15:35:12.436Z,5.97
2022-08-14T15:39:19.578Z,6.25
2022-08-14T15:43:22.483Z,7.65
2022-08-14T15:47:27.715Z,6.82
2022-08-14T15:51:32.749Z,6.95
2022-08-14T15:55:35.861Z,6.85
2022-08-14T15:59:57.374Z,6.55
2022-08-14T16:04:01.400Z,6.75
2022-08-14T16:08:28.943Z,7.00
2022-08-14T16:12:41.118Z,7.82
2022-08-14T16:16:59.887Z,7.55
2022-08-14T16:21:08.791Z,7.25
2022-08-14T16:25:19.360Z,6.93
2022-08-14T16:29:22.295Z,6.70
2022-08-14T16:37:49.248Z,7.07
2022-08-14T16:41:54.417Z,7.38
2022-08-14T16:45:58.017Z,7.07
2022-08-14T16:50:04.256Z,7.20
2022-08-14T16:54:33.784Z,8.00
2022-08-14T16:58:36.015Z,7.20
2022-08-14T17:02:42.688Z,7.55
2022-08-14T17:06:48.316Z,7.38
2022-08-14T17:11:04.854Z,7.38
2022-08-14T17:15:15.745Z,7.60
2022-08-14T17:19:23.525Z,6.93
2022-08-14T17:23:29.941Z,7.80
2022-08-14T17:27:33.375Z,7.47
2022-08-14T17:31:58.876Z,7.47
2022-08-14T17:36:20.836Z,7.25
2022-08-14T17:40:30.519Z,7.70
2022-08-14T17:44:45.634Z,7.40
2022-08-14T17:49:15.063Z,8.05
2022-08-14T17:53:15.850Z,7.65
2022-08-14T17:57:28.466Z,7.70
2022-08-14T18:01:35.455Z,7.28
2022-08-14T18:06:09.464Z,6.90
2022-08-14T18:10:52.306Z,7.72
2022-08-14T18:14:48.894Z,7.47
2022-08-14T18:18:55.513Z,7.22
2022-08-14T18:23:01.637Z,7.43
2022-08-14T18:27:16.536Z,7.45
2022-08-14T18:31:41.942Z,7.38
2022-08-14T18:35:58.078Z,7.43
2022-08-14T18:40:34.990Z,8.07
2022-08-14T18:45:12.407Z,7.90
2022-08-14T18:49:20.372Z,7.28
2022-08-14T18:53:34.378Z,7.43
2022-08-14T18:58:27.397Z,8.00
2022-08-14T19:02:44.016Z,11.70
2022-08-14T19:06:56.235Z,7.82
2022-08-14T19:11:03.975Z,9.32
2022-08-14T19:15:10.642Z,8.38
2022-08-14T19:19:17.178Z,8.45
2022-08-14T19:23:40.689Z,8.45
2022-08-14T19:28:30.933Z,8.40
2022-08-14T19:32:40.639Z,8.00
2022-08-14T19:37:04.542Z,7.97
2022-08-14T19:41:15.231Z,8.70
2022-08-14T19:45:18.611Z,8.55
2022-08-14T19:50:08.708Z,8.23
2022-08-14T19:53:57.548Z,9.23
2022-08-14T19:58:00.684Z,8.75
2022-08-14T20:02:05.954Z,8.98
2022-08-14T20:06:11.439Z,8.60
2022-08-14T20:11:03.051Z,8.57
2022-08-14T20:14:51.745Z,8.73
2022-08-14T20:18:55.405Z,9.10
2022-08-14T20:23:11.081Z,9.13
2022-08-14T20:27:22.462Z,8.35
2022-08-14T20:31:37.471Z,8.40
2022-08-14T20:35:48.948Z,8.98
2022-08-14T20:39:55.805Z,9.38
2022-08-14T20:44:20.754Z,8.35
2022-08-14T20:48:53.023Z,8.45
2022-08-14T20:52:50.308Z,10.45
2022-08-14T20:56:56.125Z,9.05
2022-08-14T21:01:00.657Z,8.50
2022-08-14T21:05:16.185Z,9.38
2022-08-14T21:09:21.188Z,8.38
2022-08-14T21:14:19.673Z,9.02
2022-08-14T21:18:09.038Z,8.93
2022-08-14T21:22:12.308Z,8.48
2022-08-14T21:26:17.189Z,9.00
2022-08-14T21:30:51.045Z,9.95
2022-08-14T21:34:56.184Z,9.50
2022-08-14T21:38:59.654Z,8.48
2022-08-14T21:43:02.491Z,9.52
2022-08-14T21:47:07.672Z,8.98
2022-08-14T21:51:53.452Z,8.65
2022-08-14T21:55:36.477Z,9.05
2022-08-14T21:59:40.631Z,9.02
2022-08-14T22:03:54.880Z,8.48
2022-08-14T22:07:59.939Z,8.50
2022-08-14T22:12:08.236Z,9.52
2022-08-14T22:17:00.298Z,9.10
2022-08-14T22:20:35.118Z,8.95
2022-08-14T22:24:53.224Z,8.55
2022-08-14T22:28:57.021Z,8.63
2022-08-14T22:33:01.444Z,8.98
2022-08-14T22:37:09.109Z,8.95
2022-08-14T22:41:26.877Z,8.60
2022-08-14T22:45:36.717Z,8.30
2022-08-14T22:50:28.957Z,8.45
2022-08-14T22:54:03.454Z,8.85
2022-08-14T22:58:08.759Z,7.97
2022-08-14T23:02:15.884Z,8.95
2022-08-14T23:07:03.378Z,7.78
2022-08-14T23:10:41.593Z,7.95
2022-08-14T23:14:47.681Z,8.25
2022-08-14T23:18:54.028Z,7.60
2022-08-14T23:22:58.581Z,7.60
2022-08-14T23:27:01.517Z,7.07
2022-08-14T23:31:16.032Z,7.13
2022-08-14T23:35:41.770Z,8.45
2022-08-14T23:40:03.011Z,7.22
2022-08-14T23:44:12.488Z,6.68
2022-08-14T23:48:20.692Z,5.05
2022-08-14T23:53:04.158Z,4.85
2022-08-14T23:56:50.412Z,4.88
